Aeroporto :
LOGIN :

Iscrizione | Disclaimer

   EN    FR    IT 

 










Sommario :    VFR   VFR Marginale   IFR   IFR Intensivo   IFR Molto Intensivo
Visibilità : 
Base nubi : 
>= 8 km
>= 3000ft
5 / 8 km
1000 / 3000 ft
1500m / 5 km
500 / 1000 ft
800 / 1500m
200 / 500 ft
< 800m
< 200 ft
Simboli :   Temporali  Nebbia  Neve Forte  Precipitazioni Forti  Vento > 20 kt
SIGMETs :   Varie  Temporali  Ghiacco  Turbolenza  Onda orograficha  Ceneri Vulcaniche






- Altitudine del aeroporto : 90 ft
- Codice IATA : NTE


LFRS - Nantes

ULTIMO METAR :
  • 231830Z AUTO 08005KT CAVOK 08/06 Q1028 NOSIG

METARs OBSOLETI :
  • 231800Z AUTO 08004KT CAVOK 09/06 Q1028 NOSIG
  • 231730Z AUTO 08003KT CAVOK 09/06 Q1028 NOSIG
  • 231700Z AUTO 08004KT CAVOK 10/06 Q1028 NOSIG
  • 231630Z AUTO 09004KT CAVOK 10/06 Q1028 NOSIG
  • 231600Z AUTO 10004KT CAVOK 12/07 Q1028 NOSIG

TAF TAF LFRS
Valido dal 23 a 18 ore il 25 a 00 ore UTC


231700Z 2318/2424 10005KT CAVOK
PROB30
TEMPO 2400/2404 3000 BR
BECMG 2419/2421 16010KT
ATIS : +33 2 40 05 12 74



MetMap, La meteo Aeronautica in un colpo d'occhio ! - Copyright ORBIFLY Dicembre 2007 - Disclaimer

ORBIFLY MET'MAP TEAM :

Programmazione e sviluppo : Alexandra Zaïnal
Concezione : Baudouin d'Aumeries
Aiuto per la programmazione : Marc-Olivier Méhu
Supporto tecnico e logistico : Manuel Goepfert
Aiuto per la traduzione : Arnaldo La Scala

Contatto : metmap@orbifly.com




FONTI E CREDITI :

   NOAA